Time;durP1;ratioP1;P1;durP2;ratioP2;P2;SDS_P1;SDS_P2;PMS_P1;PMS_P2;Temp;Humidity;BMP_temperature;BMP_pressure;BME280_temperature;BME280_humidity;BME280_pressure;Samples;Min_cycle;Max_cycle;Signal;HPM_P1;HPM_P2
2022/10/19 00:01:37;;;;;;;7.50;5.47;;;;;;;10.27;100.00;97269.41;5012931;28;20458;-77
2022/10/19 00:04:04;;;;;;;7.97;5.30;;;;;;;10.16;100.00;97260.16;5012299;28;20825;-77
2022/10/19 00:06:35;;;;;;;6.40;5.47;;;;;;;10.29;100.00;97264.63;5012712;28;20551;-77
2022/10/19 00:09:08;;;;;;;5.50;4.80;;;;;;;10.16;100.00;97254.09;4999111;28;20446;-77
2022/10/19 00:11:39;;;;;;;8.40;6.00;;;;;;;10.32;100.00;97257.97;5013590;28;20434;-77
2022/10/19 00:14:09;;;;;;;5.33;4.63;;;;;;;10.32;100.00;97263.25;5013575;28;20416;-77
2022/10/19 00:16:37;;;;;;;5.00;4.50;;;;;;;10.20;100.00;97239.19;5014537;28;20416;-77
2022/10/19 00:19:07;;;;;;;6.57;4.43;;;;;;;10.39;100.00;97274.16;5023405;28;20465;-77
2022/10/19 00:21:34;;;;;;;6.40;5.40;;;;;;;10.31;100.00;97257.19;5013477;28;20453;-77
2022/10/19 00:24:01;;;;;;;4.93;4.50;;;;;;;10.16;100.00;97239.03;5012204;28;20481;-77
2022/10/19 00:26:28;;;;;;;7.40;4.80;;;;;;;10.34;100.00;97277.72;5013217;28;20455;-77
2022/10/19 00:28:55;;;;;;;4.40;4.10;;;;;;;10.29;100.00;97280.50;5013386;28;20467;-78
2022/10/19 00:31:23;;;;;;;5.83;5.33;;;;;;;10.29;100.00;97275.22;5012083;28;20443;-77
2022/10/19 00:33:50;;;;;;;4.93;4.43;;;;;;;10.29;100.00;97262.00;5011957;28;20929;-77
2022/10/19 00:36:23;;;;;;;4.07;3.70;;;;;;;10.36;100.00;97270.25;5013134;28;20461;-77
2022/10/19 00:38:50;;;;;;;8.50;5.00;;;;;;;10.30;100.00;97270.69;5012690;28;20445;-77
2022/10/19 00:41:19;;;;;;;5.43;5.00;;;;;;;10.30;100.00;97262.78;5011814;28;20855;-77
2022/10/19 00:44:25;;;;;;;5.27;4.80;;;;;;;10.36;100.00;97266.84;5011852;28;20859;-77
2022/10/19 00:46:52;;;;;;;5.00;4.53;;;;;;;10.26;100.00;97257.28;5018996;28;20463;-77
2022/10/19 00:49:23;;;;;;;4.80;4.40;;;;;;;10.39;100.00;97273.38;5015655;28;20532;-77
2022/10/19 00:51:54;;;;;;;5.53;5.00;;;;;;;10.42;100.00;97278.88;5012924;28;20467;-77
2022/10/19 00:54:22;;;;;;;5.20;4.73;;;;;;;10.24;100.00;97259.44;5006178;28;20419;-77
2022/10/19 00:56:52;;;;;;;7.20;4.53;;;;;;;10.32;100.00;97271.97;5011498;28;20513;-77
2022/10/19 00:59:21;;;;;;;8.77;4.00;;;;;;;10.05;100.00;97235.03;5011207;28;20459;-77
2022/10/19 01:01:48;;;;;;;4.73;3.83;;;;;;;10.51;100.00;97281.56;5017661;28;20462;-77
2022/10/19 01:04:15;;;;;;;6.77;4.63;;;;;;;10.40;100.00;97262.50;5012667;28;20518;-77
2022/10/19 01:06:42;;;;;;;7.20;5.13;;;;;;;10.30;100.00;97260.91;5011054;28;20463;-77
2022/10/19 01:09:09;;;;;;;10.07;5.83;;;;;;;10.22;100.00;97261.63;5012357;28;20893;-77
2022/10/19 01:12:01;;;;;;;7.50;4.77;;;;;;;10.39;100.00;97289.25;5011103;28;20440;-77
2022/10/19 01:14:37;;;;;;;8.73;4.77;;;;;;;10.42;100.00;97293.97;4998356;28;20475;-77
2022/10/19 01:17:25;;;;;;;8.90;5.80;;;;;;;10.39;100.00;97286.59;5026663;28;20426;-78
2022/10/19 01:20:03;;;;;;;11.30;4.73;;;;;;;10.33;100.00;97281.44;5012141;28;20864;-77
2022/10/19 01:22:29;;;;;;;9.00;5.23;;;;;;;10.38;100.00;97287.69;5011125;28;20453;-77
2022/10/19 01:24:59;;;;;;;5.33;4.50;;;;;;;10.39;100.00;97289.25;5011080;28;20435;-77
2022/10/19 01:27:32;;;;;;;8.20;5.27;;;;;;;10.18;100.00;97259.84;5010892;28;20467;-77
2022/10/19 01:30:16;;;;;;;6.80;5.17;;;;;;;10.25;100.00;97276.09;5010909;28;20451;-77
2022/10/19 01:32:42;;;;;;;5.97;4.50;;;;;;;10.21;100.00;97273.28;5012107;28;20427;-77
2022/10/19 01:35:23;;;;;;;4.93;4.53;;;;;;;9.92;100.00;97249.09;5010874;28;20439;-77
2022/10/19 01:38:11;;;;;;;6.67;4.53;;;;;;;10.20;100.00;97268.25;4994838;28;20522;-77
2022/10/19 01:40:52;;;;;;;5.10;4.00;;;;;;;10.18;100.00;97268.56;4994743;28;20830;-77
2022/10/19 01:43:42;;;;;;;8.97;5.27;;;;;;;9.97;100.00;97249.75;4994579;28;20566;-77
2022/10/19 01:46:17;;;;;;;7.00;4.33;;;;;;;9.78;100.00;97220.84;4991759;28;20931;-77
2022/10/19 01:48:53;;;;;;;35.47;7.57;;;;;;;9.74;100.00;97234.94;5011858;28;20541;-77
2022/10/19 01:51:29;;;;;;;8.90;5.27;;;;;;;9.98;100.00;97242.59;5009776;28;20438;-77
2022/10/19 01:53:59;;;;;;;14.40;6.00;;;;;;;9.99;100.00;97238.88;5010641;28;20842;-77
2022/10/19 01:56:29;;;;;;;30.03;5.53;;;;;;;10.24;100.00;97248.88;5010730;28;20870;-77
2022/10/19 01:59:00;;;;;;;13.37;5.50;;;;;;;10.17;100.00;97237.94;5010398;28;20501;-77
2022/10/19 02:01:32;;;;;;;8.20;4.90;;;;;;;10.15;100.00;97236.66;5003611;28;20454;-77
2022/10/19 02:04:01;;;;;;;7.80;5.33;;;;;;;10.04;100.00;97209.72;5012274;28;20938;-77
2022/10/19 02:06:27;;;;;;;30.87;6.53;;;;;;;9.88;100.00;97205.84;5015153;28;20486;-77
2022/10/19 02:08:54;;;;;;;8.30;4.43;;;;;;;9.65;100.00;97174.16;4985696;28;20506;-77
2022/10/19 02:11:22;;;;;;;34.33;7.10;;;;;;;9.98;100.00;97240.72;5022611;28;20454;-77
2022/10/19 02:14:02;;;;;;;19.17;6.43;;;;;;;9.87;100.00;97199.78;5015074;28;20970;-77
2022/10/19 02:16:36;;;;;;;21.07;5.47;;;;;;;10.07;100.00;97238.16;5016150;28;20990;-77
2022/10/19 02:19:07;;;;;;;33.70;6.27;;;;;;;9.75;100.00;97194.28;5010951;28;20454;-77
2022/10/19 02:21:34;;;;;;;28.53;5.00;;;;;;;9.59;100.00;97193.03;5011519;28;20412;-77
2022/10/19 02:24:00;;;;;;;16.27;6.27;;;;;;;9.72;100.00;97187.69;5011571;28;21002;-77
2022/10/19 02:26:27;;;;;;;13.03;5.00;;;;;;;9.68;100.00;97170.13;5011508;28;20420;-77
2022/10/19 02:28:55;;;;;;;29.13;6.10;;;;;;;9.92;100.00;97207.59;5006750;28;20573;-77
2022/10/19 02:31:22;;;;;;;15.80;4.77;;;;;;;9.60;100.00;97142.56;4993677;28;20449;-77
2022/10/19 02:33:49;;;;;;;31.90;8.30;;;;;;;9.90;100.00;97196.56;5011252;28;20973;-77
2022/10/19 02:36:17;;;;;;;30.07;11.50;;;;;;;10.03;100.00;97213.44;5009973;28;20928;-77
2022/10/19 02:38:44;;;;;;;21.00;6.07;;;;;;;9.94;100.00;97194.88;5009929;28;20432;-77
2022/10/19 02:41:49;;;;;;;25.63;5.40;;;;;;;10.06;100.00;97223.41;4993546;28;20472;-77
2022/10/19 02:44:24;;;;;;;41.23;4.13;;;;;;;9.80;100.00;97199.44;5000961;28;20434;-77
2022/10/19 02:46:57;;;;;;;27.87;4.13;;;;;;;9.74;100.00;97230.44;5009819;28;20794;-77
2022/10/19 02:49:24;;;;;;;51.43;6.67;;;;;;;9.31;100.00;97203.66;5004211;28;20463;-77
2022/10/19 02:52:03;;;;;;;51.77;7.27;;;;;;;9.44;100.00;97204.69;4993558;28;20447;-77
2022/10/19 02:54:30;;;;;;;24.17;3.53;;;;;;;9.36;100.00;97185.09;5011239;28;20434;-77
2022/10/19 02:56:56;;;;;;;22.70;4.13;;;;;;;9.53;100.00;97202.16;5009714;28;20498;-77
2022/10/19 02:59:23;;;;;;;18.00;3.90;;;;;;;9.23;100.00;97169.28;5009725;28;20467;-77
2022/10/19 03:01:50;;;;;;;11.77;3.00;;;;;;;9.60;100.00;97221.00;5013103;28;20434;-77
2022/10/19 03:04:17;;;;;;;25.83;4.23;;;;;;;9.39;100.00;97210.09;5013695;28;20438;-78
2022/10/19 03:06:44;;;;;;;15.47;4.17;;;;;;;9.10;100.00;97170.84;5014824;28;20438;-77
2022/10/19 03:09:10;;;;;;;16.50;3.93;;;;;;;9.02;100.00;97163.63;5013462;28;20844;-77
2022/10/19 03:11:37;;;;;;;26.13;4.93;;;;;;;9.37;100.00;97206.97;5010173;28;20922;-77
2022/10/19 03:14:04;;;;;;;45.17;4.27;;;;;;;9.34;100.00;97176.66;5002538;28;20431;-77
2022/10/19 03:16:30;;;;;;;28.57;4.40;;;;;;;9.17;100.00;97163.31;5014769;28;20429;-77
2022/10/19 03:18:57;;;;;;;10.13;2.77;;;;;;;9.44;100.00;97208.13;4997071;28;20444;-77
2022/10/19 03:21:23;;;;;;;20.87;4.03;;;;;;;9.01;100.00;97177.88;4997225;28;20818;-77
2022/10/19 03:23:50;;;;;;;17.27;2.33;;;;;;;8.99;100.00;97178.19;5013461;28;20453;-77
2022/10/19 03:26:17;;;;;;;37.83;4.83;;;;;;;8.91;100.00;97178.88;5013191;28;20948;-77
2022/10/19 03:28:43;;;;;;;44.97;4.60;;;;;;;9.00;100.00;97192.94;4996949;28;20473;-77
2022/10/19 03:31:10;;;;;;;43.10;4.70;;;;;;;8.96;100.00;97191.19;5029500;28;20977;-77
2022/10/19 03:33:37;;;;;;;33.37;5.40;;;;;;;8.44;100.00;97100.97;5013522;28;20454;-77
2022/10/19 03:36:24;;;;;;;25.37;5.47;;;;;;;8.87;100.00;97152.31;5013003;28;20435;-77
2022/10/19 03:38:53;;;;;;;27.80;4.60;;;;;;;9.12;100.00;97174.75;4996763;28;20443;-77
2022/10/19 03:41:21;;;;;;;9.73;3.27;;;;;;;9.03;100.00;97152.00;5014339;28;20437;-77
2022/10/19 03:43:48;;;;;;;9.50;3.30;;;;;;;9.35;100.00;97190.66;5013013;28;20434;-77
2022/10/19 03:46:15;;;;;;;12.07;4.07;;;;;;;9.30;100.00;97191.53;5014092;28;20477;-77
2022/10/19 03:48:43;;;;;;;27.33;5.10;;;;;;;9.19;100.00;97185.69;5012571;28;20550;-77
2022/10/19 03:51:19;;;;;;;21.00;4.40;;;;;;;9.27;100.00;97205.31;5014002;28;20443;-77
2022/10/19 03:53:47;;;;;;;35.50;6.63;;;;;;;9.28;100.00;97206.88;5012591;28;20439;-77
2022/10/19 03:56:16;;;;;;;5.13;2.83;;;;;;;9.25;100.00;97204.84;5012763;28;20446;-77
2022/10/19 03:58:44;;;;;;;16.27;3.57;;;;;;;9.09;100.00;97179.84;4996118;28;20439;-77
2022/10/19 04:01:22;;;;;;;3.37;3.00;;;;;;;9.33;100.00;97205.97;5012241;28;20983;-77
2022/10/19 04:03:54;;;;;;;9.50;3.47;;;;;;;9.21;100.00;97180.09;5012540;28;20458;-77
2022/10/19 04:06:25;;;;;;;11.43;4.50;;;;;;;9.19;100.00;97180.41;5012350;28;20423;-77
2022/10/19 04:08:52;;;;;;;9.30;5.00;;;;;;;9.32;100.00;97194.66;5012053;28;20594;-77
2022/10/19 04:11:23;;;;;;;4.73;4.13;;;;;;;9.55;100.00;97223.75;5002427;28;20435;-77
2022/10/19 04:13:51;;;;;;;4.00;3.47;;;;;;;9.28;100.00;97180.50;4989834;28;20963;-77
2022/10/19 04:16:18;;;;;;;6.73;4.13;;;;;;;9.34;100.00;97199.63;4976346;28;20444;-77
2022/10/19 04:18:45;;;;;;;11.43;4.63;;;;;;;9.38;100.00;97211.94;5024945;28;20436;-77
2022/10/19 04:21:19;;;;;;;11.20;4.37;;;;;;;9.35;100.00;97219.69;5013276;28;20441;-77
2022/10/19 04:23:46;;;;;;;6.33;4.27;;;;;;;9.36;100.00;97227.31;5013408;28;20924;-77
2022/10/19 04:26:13;;;;;;;15.70;5.33;;;;;;;9.37;100.00;97217.53;5012243;28;20431;-77
2022/10/19 04:28:39;;;;;;;4.47;3.00;;;;;;;9.44;100.00;97217.91;5011713;28;20467;-77
2022/10/19 04:31:06;;;;;;;16.57;4.13;;;;;;;9.30;100.00;97211.88;5011755;28;20462;-77
2022/10/19 04:33:33;;;;;;;8.97;3.67;;;;;;;9.12;100.00;97185.31;5013080;28;20540;-77
2022/10/19 04:36:03;;;;;;;60.13;6.20;;;;;;;9.21;100.00;97213.63;5011813;28;20442;-77
2022/10/19 04:38:30;;;;;;;27.53;6.23;;;;;;;9.32;100.00;97215.75;4995547;28;20440;-77
2022/10/19 04:41:05;;;;;;;33.80;5.13;;;;;;;9.12;100.00;97168.69;5012505;28;20459;-77
2022/10/19 04:43:32;;;;;;;29.37;5.57;;;;;;;9.19;100.00;97195.44;5012732;28;20439;-77
2022/10/19 04:46:04;;;;;;;22.57;5.70;;;;;;;9.18;100.00;97197.31;5013208;28;20510;-77
2022/10/19 04:48:33;;;;;;;17.10;4.77;;;;;;;9.38;100.00;97225.16;4996679;28;20552;-77
2022/10/19 04:50:59;;;;;;;18.40;4.50;;;;;;;9.28;100.00;97211.38;5014142;28;20513;-77
2022/10/19 04:53:26;;;;;;;13.83;4.97;;;;;;;9.28;100.00;97222.72;5013229;28;20490;-77
2022/10/19 04:55:53;;;;;;;30.70;6.37;;;;;;;9.21;100.00;97206.50;5014720;28;20427;-77
2022/10/19 04:58:20;;;;;;;41.77;5.77;;;;;;;9.08;100.00;97194.09;5012884;28;20955;-77
2022/10/19 05:00:46;;;;;;;61.30;8.27;;;;;;;9.15;100.00;97229.56;5014379;28;21039;-77
2022/10/19 05:03:14;;;;;;;64.40;7.80;;;;;;;9.14;100.00;97228.00;4995411;28;21022;-77
2022/10/19 05:05:40;;;;;;;28.37;4.57;;;;;;;9.01;100.00;97201.63;5011284;28;20451;-77
2022/10/19 05:08:08;;;;;;;47.90;5.77;;;;;;;9.01;100.00;97204.28;5012378;28;20451;-77
2022/10/19 05:10:36;;;;;;;29.83;5.30;;;;;;;9.12;100.00;97214.31;5007612;28;20504;-77
2022/10/19 05:13:03;;;;;;;21.77;4.40;;;;;;;9.19;100.00;97224.47;5011250;28;20578;-77
2022/10/19 05:15:30;;;;;;;16.27;4.20;;;;;;;8.88;100.00;97185.50;5011229;28;20447;-77
2022/10/19 05:17:57;;;;;;;8.97;4.00;;;;;;;9.04;100.00;97185.22;5013038;28;20522;-77
2022/10/19 05:20:24;;;;;;;17.43;5.23;;;;;;;9.03;100.00;97186.28;5010977;28;20451;-77
2022/10/19 05:22:51;;;;;;;16.07;4.27;;;;;;;8.87;100.00;97177.91;5010793;28;20443;-76
2022/10/19 05:25:17;;;;;;;41.17;7.40;;;;;;;9.07;100.00;97189.88;5010915;28;20435;-77
2022/10/19 05:27:44;;;;;;;6.63;3.87;;;;;;;8.78;100.00;97154.06;4994575;28;20494;-77
2022/10/19 05:30:13;;;;;;;5.07;3.83;;;;;;;8.94;100.00;97182.75;5012222;28;20450;-77
2022/10/19 05:32:39;;;;;;;6.07;4.90;;;;;;;8.85;100.00;97157.09;5011097;28;20454;-77
2022/10/19 05:35:06;;;;;;;7.20;3.67;;;;;;;9.03;100.00;97199.47;5011481;28;20458;-77
2022/10/19 05:37:33;;;;;;;11.23;3.90;;;;;;;8.86;100.00;97173.69;5010783;28;20435;-77
2022/10/19 05:40:00;;;;;;;42.43;6.00;;;;;;;8.67;100.00;97157.97;5010808;28;20451;-77
2022/10/19 05:42:27;;;;;;;12.43;4.30;;;;;;;8.67;100.00;97163.25;5012028;28;20442;-77
2022/10/19 05:44:53;;;;;;;31.73;5.67;;;;;;;8.88;100.00;97200.56;5010871;28;20439;-79
2022/10/19 05:47:20;;;;;;;10.60;4.37;;;;;;;8.74;100.00;97186.59;5010893;28;20866;-77
2022/10/19 05:49:47;;;;;;;11.47;4.80;;;;;;;8.59;100.00;97158.66;5011096;28;20477;-78
2022/10/19 05:52:14;;;;;;;28.13;5.77;;;;;;;8.64;100.00;97173.59;5010804;28;20430;-78
2022/10/19 05:54:41;;;;;;;56.03;6.90;;;;;;;8.36;100.00;97151.69;4991470;28;20452;-77
2022/10/19 05:57:07;;;;;;;32.20;5.93;;;;;;;8.36;100.00;97170.16;4989765;28;20897;-77
2022/10/19 05:59:34;;;;;;;8.67;3.90;;;;;;;8.62;100.00;97192.34;5011909;28;20530;-77
2022/10/19 06:02:00;;;;;;;21.50;4.30;;;;;;;8.65;100.00;97198.88;5010752;28;20458;-78
2022/10/19 06:04:27;;;;;;;12.23;5.60;;;;;;;8.30;100.00;97159.69;5011996;28;20481;-77
2022/10/19 06:06:54;;;;;;;11.77;3.57;;;;;;;8.36;100.00;97162.25;5011668;28;20942;-78
2022/10/19 06:09:20;;;;;;;41.60;5.00;;;;;;;8.73;100.00;97191.09;5011731;28;20518;-78
2022/10/19 06:11:47;;;;;;;25.67;6.20;;;;;;;8.24;100.00;97157.41;5013817;28;20427;-78
2022/10/19 06:14:15;;;;;;;22.33;3.97;;;;;;;8.41;100.00;97184.00;5013358;28;20434;-78
2022/10/19 06:16:41;;;;;;;60.47;7.23;;;;;;;8.19;100.00;97181.22;5014374;28;20430;-78
2022/10/19 06:19:08;;;;;;;35.70;5.60;;;;;;;8.44;100.00;97191.34;5013615;28;20544;-77
2022/10/19 06:21:35;;;;;;;17.30;4.13;;;;;;;8.32;100.00;97156.75;5014026;28;20441;-78
2022/10/19 06:24:03;;;;;;;53.60;4.87;;;;;;;8.61;100.00;97211.09;5015402;28;20950;-78
2022/10/19 06:26:32;;;;;;;19.80;4.50;;;;;;;8.48;100.00;97217.91;5013876;28;20805;-78
2022/10/19 06:28:59;;;;;;;51.07;6.97;;;;;;;8.23;100.00;97190.88;5013903;28;20459;-78
2022/10/19 06:31:28;;;;;;;36.20;6.57;;;;;;;8.38;100.00;97207.53;5014545;28;20887;-78
2022/10/19 06:33:55;;;;;;;23.67;4.40;;;;;;;8.30;100.00;97206.31;5014652;28;20431;-78
2022/10/19 06:36:24;;;;;;;67.30;6.10;;;;;;;8.22;100.00;97194.59;5017683;28;20427;-78
2022/10/19 06:38:52;;;;;;;41.43;3.77;;;;;;;8.23;100.00;97221.72;5016570;28;20411;-78
2022/10/19 06:41:19;;;;;;;56.93;4.80;;;;;;;8.20;100.00;97217.03;5033753;28;20469;-77
2022/10/19 06:43:53;;;;;;;42.13;4.37;;;;;;;7.98;100.00;97183.38;5015462;28;20459;-78
2022/10/19 06:46:22;;;;;;;40.67;3.80;;;;;;;8.09;100.00;97200.59;5017038;28;20924;-78
2022/10/19 06:49:00;;;;;;;20.90;3.13;;;;;;;8.07;100.00;97209.84;5015382;28;20520;-78
2022/10/19 06:51:29;;;;;;;12.63;2.53;;;;;;;8.18;100.00;97235.75;5004807;28;20465;-78
2022/10/19 06:53:56;;;;;;;29.50;4.00;;;;;;;7.73;100.00;97202.97;4999015;28;20534;-78
2022/10/19 06:56:24;;;;;;;8.40;2.87;;;;;;;7.87;100.00;97216.97;4999552;28;20812;-78
2022/10/19 06:58:51;;;;;;;19.23;2.43;;;;;;;7.89;100.00;97238.56;5019719;28;20942;-78
2022/10/19 07:01:18;;;;;;;6.13;2.37;;;;;;;7.72;100.00;97222.47;5031125;28;20474;-77
2022/10/19 07:03:45;;;;;;;7.87;3.00;;;;;;;8.04;100.00;97252.56;5014863;28;20462;-78
2022/10/19 07:06:12;;;;;;;35.87;5.57;;;;;;;7.56;100.00;97207.97;5016192;28;20419;-78
2022/10/19 07:08:41;;;;;;;12.43;3.33;;;;;;;7.93;100.00;97260.63;5014492;28;20477;-78
2022/10/19 07:11:10;;;;;;;8.33;2.90;;;;;;;8.07;100.00;97262.53;5014412;28;20455;-78
2022/10/19 07:13:37;;;;;;;13.57;3.63;;;;;;;7.98;100.00;97252.63;5014804;28;20545;-78
2022/10/19 07:16:13;;;;;;;13.97;4.13;;;;;;;7.94;100.00;97246.38;4998679;28;20427;-78
2022/10/19 07:18:47;;;;;;;20.43;6.03;;;;;;;7.77;100.00;97266.38;5014892;28;20963;-78
2022/10/19 07:21:15;;;;;;;16.17;5.07;;;;;;;7.65;100.00;97262.31;5016055;28;20427;-78
2022/10/19 07:23:43;;;;;;;7.93;4.53;;;;;;;8.03;100.00;97266.81;5014877;28;20442;-78
2022/10/19 07:26:12;;;;;;;9.40;5.23;;;;;;;7.90;100.00;97271.72;4998143;28;20446;-77
2022/10/19 07:28:40;;;;;;;18.43;5.13;;;;;;;7.56;100.00;97210.59;5015704;28;20457;-78
2022/10/19 07:31:10;;;;;;;5.27;4.30;;;;;;;7.85;100.00;97234.13;4998033;28;20458;-78
2022/10/19 07:33:37;;;;;;;5.60;4.90;;;;;;;7.71;100.00;97199.84;5014113;28;20435;-78
2022/10/19 07:36:07;;;;;;;7.80;4.80;;;;;;;8.34;100.00;97270.56;5014107;28;20449;-78
2022/10/19 07:38:34;;;;;;;7.90;5.30;;;;;;;8.12;100.00;97231.63;5013811;28;20435;-78
2022/10/19 07:41:07;;;;;;;5.70;4.83;;;;;;;8.36;100.00;97276.31;5015571;28;20786;-78
2022/10/19 07:43:34;;;;;;;7.30;4.90;;;;;;;8.25;100.00;97254.59;5016077;28;20429;-78
2022/10/19 07:46:02;;;;;;;6.00;5.30;;;;;;;8.34;100.00;97270.56;5013870;28;20445;-78
2022/10/19 07:48:29;;;;;;;7.70;6.10;;;;;;;8.47;100.00;97295.41;5012510;28;20479;-78
2022/10/19 07:50:56;;;;;;;8.10;5.33;;;;;;;8.25;100.00;97273.03;5013752;28;20459;-78
2022/10/19 07:53:23;;;;;;;7.60;6.03;;;;;;;8.45;100.00;97297.53;5013972;28;20451;-78
2022/10/19 07:55:49;;;;;;;8.87;6.03;;;;;;;8.30;100.00;97270.34;5013628;28;20439;-78
2022/10/19 07:58:16;;;;;;;8.67;7.10;;;;;;;8.59;100.00;97306.28;5013798;28;20526;-78
2022/10/19 08:00:43;;;;;;;8.93;6.60;;;;;;;8.69;100.00;97284.25;5013872;28;20476;-78
2022/10/19 08:03:09;;;;;;;7.17;6.37;;;;;;;8.60;100.00;97284.13;5013608;28;20446;-78
2022/10/19 08:06:04;;;;;;;10.43;6.97;;;;;;;8.42;100.00;97263.88;5002193;28;20431;-78
2022/10/19 08:08:31;;;;;;;10.30;7.80;;;;;;;8.81;100.00;97293.25;5018796;28;20516;-78
2022/10/19 08:11:08;;;;;;;10.17;7.70;;;;;;;8.84;100.00;97294.53;5004643;28;20522;-78
2022/10/19 08:13:36;;;;;;;10.27;7.67;;;;;;;9.13;100.00;97292.41;5010782;28;20815;-78
2022/10/19 08:16:02;;;;;;;8.07;6.67;;;;;;;9.19;100.00;97311.53;5014858;28;20527;-78
2022/10/19 08:18:29;;;;;;;7.13;6.47;;;;;;;9.56;100.00;97310.56;4997110;28;20542;-78
2022/10/19 08:21:01;;;;;;;11.77;6.40;;;;;;;9.40;100.00;97275.78;5001903;28;20456;-78
2022/10/19 08:23:28;;;;;;;9.57;6.70;;;;;;;9.45;100.00;97280.16;4996242;28;20475;-78
2022/10/19 08:25:58;;;;;;;12.37;6.20;;;;;;;9.61;100.00;97305.19;5013363;28;20943;-78
2022/10/19 08:28:25;;;;;;;9.20;7.20;;;;;;;9.47;100.00;97299.13;5014454;28;20431;-78
2022/10/19 08:30:56;;;;;;;10.67;6.80;;;;;;;9.41;100.00;97287.13;5013416;28;20447;-78
2022/10/19 08:33:25;;;;;;;8.70;7.00;;;;;;;9.84;100.00;97324.53;5013375;28;20465;-78
2022/10/19 08:35:52;;;;;;;8.93;8.03;;;;;;;9.58;100.00;97281.22;5013022;28;20432;-78
2022/10/19 08:38:19;;;;;;;10.20;6.83;;;;;;;9.80;100.00;97307.72;5013980;28;20954;-78
2022/10/19 08:40:46;;;;;;;9.40;7.90;;;;;;;9.71;100.00;97309.47;5014216;28;20578;-78
2022/10/19 08:43:13;;;;;;;8.93;7.40;;;;;;;9.88;100.00;97324.69;4996759;28;21080;-78
2022/10/19 08:45:55;;;;;;;13.40;7.40;;;;;;;9.71;100.00;97301.56;5029215;28;20432;-78
2022/10/19 08:48:26;;;;;;;8.40;7.60;;;;;;;9.99;100.00;97304.91;5012408;28;20546;-78
2022/10/19 08:50:54;;;;;;;10.87;8.50;;;;;;;10.35;100.00;97320.78;5012740;28;20601;-78
2022/10/19 08:53:42;;;;;;;11.73;7.77;;;;;;;10.50;100.00;97338.16;5012416;28;21019;-78
2022/10/19 08:56:27;;;;;;;12.77;9.60;;;;;;;10.50;100.00;97328.38;4983345;28;20440;-77
2022/10/19 08:59:37;;;;;;;9.23;7.80;;;;;;;10.49;100.00;97324.16;5012387;28;20479;-78
2022/10/19 09:02:42;;;;;;;9.07;8.00;;;;;;;10.60;100.00;97322.84;5012628;28;20854;-78
2022/10/19 09:05:31;;;;;;;10.43;9.10;;;;;;;10.31;100.00;97327.78;4993547;28;20452;-78
2022/10/19 09:07:58;;;;;;;13.07;9.20;;;;;;;10.16;100.00;97278.66;5012577;28;21035;-78
2022/10/19 09:10:31;;;;;;;13.27;10.60;;;;;;;10.23;100.00;97302.03;5011775;28;20474;-78
2022/10/19 09:13:08;;;;;;;13.37;11.03;;;;;;;10.09;100.00;97267.72;5020215;28;20419;-78
2022/10/19 09:15:44;;;;;;;14.47;10.93;;;;;;;10.63;100.00;97321.47;5012539;28;20542;-78
2022/10/19 09:18:30;;;;;;;13.97;11.47;;;;;;;10.14;100.00;97248.31;5013868;28;20485;-78
2022/10/19 09:21:06;;;;;;;13.80;11.20;;;;;;;10.31;100.00;97277.53;5013808;28;20439;-78
2022/10/19 09:23:51;;;;;;;12.73;10.20;;;;;;;10.46;100.00;97334.56;5013616;28;20423;-78
2022/10/19 09:26:21;;;;;;;11.67;9.90;;;;;;;10.33;100.00;97291.25;4995498;28;20488;-78
2022/10/19 09:28:59;;;;;;;14.60;10.57;;;;;;;10.47;100.00;97291.19;5012064;28;20557;-78
2022/10/19 09:31:30;;;;;;;12.17;9.37;;;;;;;10.90;100.00;97336.41;4995987;28;20435;-78
2022/10/19 09:34:02;;;;;;;16.60;10.47;;;;;;;10.93;100.00;97341.88;5013294;28;21086;-78
2022/10/19 09:36:36;;;;;;;13.70;9.40;;;;;;;11.14;100.00;97347.44;4995244;28;20450;-78
2022/10/19 09:39:16;;;;;;;15.13;9.80;;;;;;;11.37;100.00;97342.09;5011835;28;20462;-78
2022/10/19 09:41:50;;;;;;;14.40;11.13;;;;;;;11.55;100.00;97355.09;5011998;28;20809;-78
2022/10/19 09:44:17;;;;;;;16.10;10.97;;;;;;;11.79;100.00;97359.25;5012199;28;20419;-78
2022/10/19 09:46:56;;;;;;;12.70;9.30;;;;;;;11.84;100.00;97362.50;5013476;28;20423;-78
2022/10/19 09:49:40;;;;;;;11.53;9.13;;;;;;;11.47;100.00;97360.34;5012100;28;20493;-78
2022/10/19 09:52:32;;;;;;;11.60;9.27;;;;;;;11.34;100.00;97355.91;5012460;28;20883;-78
2022/10/19 09:55:23;;;;;;;11.90;10.63;;;;;;;11.30;100.00;97368.22;4984840;28;20451;-78
2022/10/19 09:57:59;;;;;;;11.67;9.03;;;;;;;11.40;100.00;97344.91;5003752;28;20443;-78
2022/10/19 10:00:38;;;;;;;12.83;9.70;;;;;;;11.47;100.00;97355.81;5013112;28;20477;-78
2022/10/19 10:03:06;;;;;;;12.53;10.13;;;;;;;11.55;100.00;97360.38;5013070;28;20431;-78
2022/10/19 10:05:37;;;;;;;13.83;11.30;;;;;;;11.70;100.00;97359.19;4996119;28;21126;-78
2022/10/19 10:08:21;;;;;;;15.37;12.07;;;;;;;11.66;100.00;97352.94;5011926;28;20477;-79
2022/10/19 10:11:11;;;;;;;14.17;11.40;;;;;;;11.33;100.00;97367.59;5012298;28;20507;-78
2022/10/19 10:13:41;;;;;;;14.17;12.60;;;;;;;11.34;100.00;97367.28;5011774;28;20538;-79
2022/10/19 10:16:31;;;;;;;12.50;9.17;;;;;;;11.26;100.00;97354.81;5003859;28;20738;-78
2022/10/19 10:18:59;;;;;;;13.40;11.20;;;;;;;11.45;100.00;97362.50;5024513;28;20429;-78
2022/10/19 10:21:32;;;;;;;17.30;12.17;;;;;;;11.61;100.00;97353.06;5011707;28;20533;-78
2022/10/19 10:24:16;;;;;;;13.43;11.43;;;;;;;11.70;100.00;97361.03;5012372;28;20975;-78
2022/10/19 10:26:45;;;;;;;15.10;11.17;;;;;;;11.60;100.00;97340.13;5028482;28;20439;-78
2022/10/19 10:29:24;;;;;;;13.10;11.70;;;;;;;11.52;100.00;97302.72;5011583;28;20463;-78
2022/10/19 10:31:54;;;;;;;14.23;10.67;;;;;;;11.96;100.00;97355.84;4980166;28;20451;-78
2022/10/19 10:34:43;;;;;;;14.10;11.77;;;;;;;11.51;100.00;97332.94;5022613;28;20447;-78
2022/10/19 10:37:26;;;;;;;14.33;10.80;;;;;;;11.49;100.00;97337.00;5011606;28;20912;-78
2022/10/19 10:39:55;;;;;;;13.53;10.50;;;;;;;11.79;100.00;97359.25;4999109;28;20461;-78
2022/10/19 10:42:40;;;;;;;12.47;11.00;;;;;;;11.46;100.00;97295.22;5012113;28;20441;-78
2022/10/19 10:45:31;;;;;;;15.87;11.53;;;;;;;11.95;100.00;97288.03;5011746;28;20851;-78
2022/10/19 10:48:10;;;;;;;15.13;11.80;;;;;;;12.29;100.00;97303.94;5028448;28;20489;-78
2022/10/19 10:50:37;;;;;;;12.07;10.77;;;;;;;12.35;100.00;97345.13;4994781;28;20554;-78
2022/10/19 10:53:22;;;;;;;15.87;11.53;;;;;;;12.54;100.00;97309.53;5027782;28;20981;-78
2022/10/19 10:55:55;;;;;;;13.63;11.83;;;;;;;12.18;100.00;97326.56;4991509;28;20472;-78
2022/10/19 10:58:40;;;;;;;19.70;12.77;;;;;;;11.70;100.00;97332.69;5003932;28;20912;-78
2022/10/19 11:01:17;;;;;;;17.50;11.17;;;;;;;11.27;100.00;97247.06;5011270;28;20478;-78
2022/10/19 11:03:51;;;;;;;13.40;11.37;;;;;;;11.63;100.00;97268.78;5012505;28;20427;-78
2022/10/19 11:06:21;;;;;;;14.60;12.47;;;;;;;12.29;100.00;97314.56;5011249;28;20545;-78
2022/10/19 11:09:10;;;;;;;12.13;10.40;;;;;;;12.71;100.00;97328.09;5013252;28;20458;-78
2022/10/19 11:11:45;;;;;;;15.10;8.87;;;;;;;12.61;100.00;97331.84;5012536;28;20427;-78
2022/10/19 11:14:48;;;;;;;14.73;11.13;;;;;;;12.62;100.00;97330.75;5011200;28;20974;-78
2022/10/19 11:17:26;;;;;;;11.23;9.93;;;;;;;13.13;100.00;97299.09;5028034;28;20431;-78
2022/10/19 11:19:53;;;;;;;11.33;10.13;;;;;;;13.38;100.00;97298.25;4996326;28;20469;-78
2022/10/19 11:22:22;;;;;;;10.30;9.30;;;;;;;13.53;100.00;97321.59;5014175;28;20419;-78
2022/10/19 11:25:15;;;;;;;14.77;10.23;;;;;;;12.71;100.00;97312.94;5015017;28;20514;-78
2022/10/19 11:28:11;;;;;;;7.93;7.23;;;;;;;12.43;100.00;97280.69;5015598;28;20463;-78
2022/10/19 11:31:06;;;;;;;8.57;7.07;;;;;;;12.52;100.00;97311.72;5015491;28;20513;-78
2022/10/19 11:33:41;;;;;;;8.80;7.37;;;;;;;12.46;100.00;97305.03;5002318;28;20534;-78
2022/10/19 11:36:28;;;;;;;8.93;7.17;;;;;;;12.11;100.00;97263.38;4998568;28;20453;-78
2022/10/19 11:39:14;;;;;;;7.90;7.20;;;;;;;12.38;100.00;97295.97;4994734;28;20440;-78
2022/10/19 11:41:55;;;;;;;7.30;6.60;;;;;;;12.35;100.00;97289.44;5011149;28;20460;-78
2022/10/19 11:44:44;;;;;;;9.90;7.90;;;;;;;12.70;100.00;97287.50;4998604;28;20510;-78
2022/10/19 11:47:50;;;;;;;10.20;6.90;;;;;;;13.01;100.00;97289.91;5016461;28;20886;-78